createdAt,value
2023-03-22T00:47:19.718Z,4.30
2023-03-22T00:48:19.000Z,6.50
2023-03-22T00:49:19.781Z,6.50
2023-03-22T00:50:20.234Z,6.60
2023-03-22T00:58:08.108Z,6.40
2023-03-22T00:59:07.955Z,6.50
2023-03-22T01:00:08.050Z,6.70
2023-03-22T01:01:08.783Z,6.80
2023-03-22T01:02:07.931Z,6.70
2023-03-22T01:03:07.862Z,6.70
2023-03-22T01:04:07.774Z,6.50
2023-03-22T01:05:18.729Z,6.80
2023-03-22T01:06:08.764Z,7.10
2023-03-22T01:07:08.637Z,6.90
2023-03-22T01:08:08.493Z,7.10
2023-03-22T01:09:08.781Z,6.90
2023-03-22T01:10:08.510Z,7.20
2023-03-22T01:11:08.469Z,7.10
2023-03-22T01:12:08.372Z,7.40
2023-03-22T01:13:08.506Z,7.40
2023-03-22T01:14:08.353Z,7.10
2023-03-22T01:15:08.248Z,7.30
2023-03-22T01:16:08.380Z,7.50
2023-03-22T01:17:08.180Z,7.90
2023-03-22T01:18:08.178Z,7.70
2023-03-22T01:19:10.317Z,7.20
2023-03-22T01:20:09.631Z,7.10
2023-03-22T01:21:08.641Z,7.60
2023-03-22T01:22:08.537Z,7.90
2023-03-22T01:24:40.120Z,7.40
2023-03-22T01:25:39.968Z,7.60
2023-03-22T01:26:39.956Z,7.30
2023-03-22T01:27:39.969Z,7.60
2023-03-22T01:28:39.825Z,7.30
2023-03-22T01:29:39.817Z,7.90
2023-03-22T01:30:40.044Z,7.70
2023-03-22T01:31:40.007Z,8.00
2023-03-22T01:32:39.738Z,7.90
2023-03-22T01:33:39.743Z,7.90
2023-03-22T01:34:40.016Z,7.70
2023-03-22T01:35:39.540Z,7.40
2023-03-22T01:36:39.530Z,8.00
2023-03-22T01:37:39.473Z,7.40
2023-03-22T01:38:39.850Z,7.70
2023-03-22T01:39:39.378Z,7.30
2023-03-22T01:40:39.611Z,7.60
2023-03-22T01:41:43.094Z,7.50
2023-03-22T01:42:42.636Z,8.00
2023-03-22T01:43:39.263Z,8.00
2023-03-22T01:46:11.287Z,7.50
2023-03-22T01:47:11.259Z,7.50
2023-03-22T01:48:11.103Z,7.20
2023-03-22T01:49:11.211Z,7.60
2023-03-22T01:50:11.047Z,7.80
2023-03-22T01:51:11.050Z,7.70
2023-03-22T01:52:10.935Z,8.20
2023-03-22T01:53:10.993Z,8.30
2023-03-22T01:54:10.835Z,8.30
2023-03-22T01:55:10.860Z,8.30
2023-03-22T01:56:10.821Z,8.30
2023-03-22T01:57:10.820Z,8.50
2023-03-22T01:58:10.778Z,8.20
2023-03-22T01:59:10.793Z,8.70
2023-03-22T02:00:10.604Z,8.50
2023-03-22T02:01:10.726Z,8.70
2023-03-22T02:02:10.633Z,8.40
2023-03-22T02:03:10.499Z,9.10
2023-03-22T02:04:10.592Z,9.10
2023-03-22T02:05:14.307Z,9.20
2023-03-22T02:06:12.345Z,9.40
2023-03-22T02:07:10.338Z,8.20
2023-03-22T02:09:43.680Z,9.10
2023-03-22T02:10:45.000Z,9.00
2023-03-22T02:11:43.350Z,8.60
2023-03-22T02:12:44.359Z,9.50
2023-03-22T02:13:43.284Z,9.20
2023-03-22T02:14:43.197Z,9.30
2023-03-22T02:15:50.070Z,9.30
2023-03-22T02:16:47.502Z,9.20
2023-03-22T02:17:45.362Z,9.40
2023-03-22T02:18:44.304Z,9.20
2023-03-22T02:21:14.983Z,9.30
2023-03-22T02:22:14.907Z,8.70
2023-03-22T02:23:14.864Z,8.90
2023-03-22T02:24:14.914Z,10.00
2023-03-22T02:25:14.744Z,8.80
2023-03-22T02:26:14.851Z,8.90
2023-03-22T02:27:14.756Z,9.80
2023-03-22T02:28:14.558Z,9.50
2023-03-22T02:29:14.869Z,8.80
2023-03-22T02:30:14.883Z,9.00
2023-03-22T02:31:15.153Z,9.20
2023-03-22T02:32:14.562Z,9.50
2023-03-22T02:33:14.551Z,9.30
2023-03-22T02:34:14.433Z,9.70
2023-03-22T02:35:16.598Z,8.90
2023-03-22T02:36:17.577Z,9.20
2023-03-22T02:37:19.625Z,9.80
2023-03-22T02:38:14.526Z,9.70
2023-03-22T02:39:14.202Z,9.80
2023-03-22T02:40:14.434Z,9.10
2023-03-22T02:42:46.276Z,8.80
2023-03-22T02:43:46.158Z,9.60
2023-03-22T02:44:45.994Z,9.70
2023-03-22T02:45:46.180Z,9.60
2023-03-22T02:46:46.077Z,9.70
2023-03-22T02:47:46.293Z,10.00
2023-03-22T02:48:45.970Z,9.70
2023-03-22T02:49:45.902Z,9.10
2023-03-22T02:50:45.843Z,9.60
2023-03-22T02:51:45.964Z,9.50
2023-03-22T02:52:46.151Z,9.40
2023-03-22T02:53:45.912Z,9.90
2023-03-22T02:54:46.800Z,9.40
2023-03-22T02:55:46.519Z,9.80
2023-03-22T02:56:46.134Z,9.70
2023-03-22T02:57:45.564Z,10.10
2023-03-22T03:00:18.670Z,9.90
2023-03-22T03:01:18.543Z,9.90
2023-03-22T03:02:18.623Z,10.40
2023-03-22T03:03:18.498Z,10.30
2023-03-22T03:04:18.557Z,10.10
2023-03-22T03:05:18.307Z,9.30
2023-03-22T03:06:18.360Z,10.10
2023-03-22T03:07:18.266Z,9.80
2023-03-22T03:08:18.276Z,9.80
2023-03-22T03:09:18.242Z,10.30
2023-03-22T03:10:19.165Z,9.90
2023-03-22T03:11:18.130Z,10.30
2023-03-22T03:12:20.651Z,11.00
2023-03-22T03:13:18.100Z,10.40
2023-03-22T03:14:34.766Z,10.50
2023-03-22T03:15:22.162Z,11.00
2023-03-22T03:16:18.184Z,10.40
2023-03-22T03:18:51.005Z,10.80
2023-03-22T03:19:50.712Z,10.40
2023-03-22T03:20:51.244Z,10.80
2023-03-22T03:21:50.729Z,10.50
2023-03-22T03:22:50.975Z,10.70
2023-03-22T03:23:50.561Z,10.70
2023-03-22T03:24:50.752Z,10.30
2023-03-22T03:25:50.802Z,11.00
2023-03-22T03:26:50.586Z,10.70
2023-03-22T03:27:52.015Z,10.50
2023-03-22T03:28:53.536Z,11.20
2023-03-22T03:29:50.966Z,10.30
2023-03-22T03:32:22.408Z,10.80
2023-03-22T03:33:22.408Z,10.70
2023-03-22T03:34:23.025Z,10.70
2023-03-22T03:35:22.599Z,10.80
2023-03-22T03:36:23.778Z,10.70
2023-03-22T03:37:22.222Z,11.00
2023-03-22T03:38:22.553Z,11.10
2023-03-22T03:40:55.263Z,10.60
2023-03-22T03:41:55.132Z,10.50
2023-03-22T03:42:55.140Z,10.40
2023-03-22T03:43:56.207Z,10.60
2023-03-22T03:44:55.016Z,11.00
2023-03-22T03:45:55.290Z,11.20
2023-03-22T03:46:55.187Z,10.80
2023-03-22T03:47:55.786Z,10.80
2023-03-22T03:48:54.803Z,11.60
2023-03-22T03:49:57.772Z,11.10
2023-03-22T03:50:55.709Z,10.40
2023-03-22T03:51:54.691Z,10.90
2023-03-22T03:54:26.673Z,10.30
2023-03-22T03:55:26.641Z,11.20
2023-03-22T03:56:26.639Z,10.90
2023-03-22T03:57:26.625Z,11.20
2023-03-22T03:58:26.653Z,10.90
2023-03-22T03:59:26.572Z,10.40
2023-03-22T04:00:26.476Z,11.10
2023-03-22T04:01:26.342Z,10.80
2023-03-22T04:02:27.618Z,10.70
2023-03-22T04:03:26.353Z,11.00
2023-03-22T04:04:26.546Z,10.80
2023-03-22T04:05:26.296Z,11.00
2023-03-22T04:06:26.300Z,10.80
2023-03-22T04:07:26.218Z,10.60
2023-03-22T04:08:27.054Z,11.00
2023-03-22T04:09:26.276Z,10.60
2023-03-22T04:10:26.298Z,11.10
2023-03-22T04:11:26.271Z,10.60
2023-03-22T04:12:26.797Z,10.70
2023-03-22T04:13:25.952Z,10.50
2023-03-22T04:14:25.969Z,11.00
2023-03-22T04:15:25.881Z,11.10
2023-03-22T04:16:25.983Z,10.40
2023-03-22T04:17:25.836Z,10.50
2023-03-22T04:18:25.959Z,10.90
2023-03-22T04:19:36.336Z,11.00
2023-03-22T04:20:28.338Z,10.70
2023-03-22T04:21:25.732Z,10.90
2023-03-22T04:22:26.557Z,11.00
2023-03-22T04:24:57.188Z,10.50
2023-03-22T04:25:57.091Z,10.90
2023-03-22T04:26:57.096Z,10.60
2023-03-22T04:27:57.127Z,10.10
2023-03-22T04:28:57.612Z,10.70
2023-03-22T04:29:56.998Z,10.30
2023-03-22T04:30:57.022Z,9.90
2023-03-22T04:31:57.033Z,10.00
2023-03-22T04:32:56.817Z,10.10
2023-03-22T04:33:56.824Z,10.30
2023-03-22T04:34:56.734Z,10.30
2023-03-22T04:35:56.931Z,10.00
2023-03-22T04:36:56.644Z,9.80
2023-03-22T04:37:56.583Z,9.60
2023-03-22T04:38:56.631Z,10.00
2023-03-22T04:39:56.563Z,9.30
2023-03-22T04:40:56.576Z,9.20
2023-03-22T04:41:56.519Z,8.90
2023-03-22T04:42:56.328Z,9.00
2023-03-22T04:43:56.345Z,8.90
2023-03-22T04:45:03.155Z,8.60
2023-03-22T04:46:01.668Z,9.10
2023-03-22T04:46:56.318Z,8.50
2023-03-22T04:49:28.527Z,9.10
2023-03-22T04:50:28.413Z,8.70
2023-03-22T04:51:28.282Z,8.80
2023-03-22T04:52:28.795Z,8.80
2023-03-22T04:53:28.316Z,8.70
2023-03-22T04:54:28.275Z,8.40
2023-03-22T04:55:28.124Z,9.30
2023-03-22T04:56:28.160Z,9.30
2023-03-22T04:57:28.093Z,9.10
2023-03-22T04:58:28.392Z,8.80
2023-03-22T04:59:28.069Z,9.00
2023-03-22T05:00:27.987Z,8.70
2023-03-22T05:01:28.243Z,9.00
2023-03-22T05:02:27.990Z,9.20
2023-03-22T05:03:27.910Z,9.20
2023-03-22T05:04:36.832Z,9.10
2023-03-22T05:05:27.985Z,9.10
2023-03-22T05:07:59.838Z,8.60
2023-03-22T05:08:59.736Z,9.20
2023-03-22T05:09:59.750Z,9.00
2023-03-22T05:10:59.664Z,8.80
2023-03-22T05:11:59.673Z,9.10
2023-03-22T05:12:59.623Z,8.80
2023-03-22T05:13:59.437Z,9.40
2023-03-22T05:14:59.516Z,9.00
2023-03-22T05:15:59.576Z,8.80
2023-03-22T05:16:59.419Z,8.20
2023-03-22T05:17:59.470Z,8.10
2023-03-22T05:19:00.478Z,7.90
2023-03-22T05:19:59.931Z,8.10
2023-03-22T05:20:59.517Z,7.40
2023-03-22T05:21:59.312Z,7.40
2023-03-22T05:22:59.882Z,7.50
2023-03-22T05:23:59.019Z,7.90
2023-03-22T05:24:58.999Z,7.80
2023-03-22T05:25:59.006Z,7.50
2023-03-22T05:26:59.014Z,7.60
2023-03-22T05:27:59.282Z,7.50
2023-03-22T05:28:58.862Z,7.70
2023-03-22T05:29:58.856Z,7.60
2023-03-22T05:30:59.278Z,7.70
2023-03-22T05:31:58.823Z,7.50
2023-03-22T05:32:58.712Z,7.60
2023-03-22T05:33:58.752Z,7.50
2023-03-22T05:34:58.710Z,7.50
2023-03-22T05:35:58.701Z,7.50
2023-03-22T05:38:07.880Z,7.90
2023-03-22T05:38:58.747Z,7.80
2023-03-22T05:41:31.593Z,7.40
2023-03-22T05:42:31.489Z,7.70
2023-03-22T05:43:32.396Z,7.60
2023-03-22T05:44:32.615Z,7.70
2023-03-22T05:45:31.433Z,7.70
2023-03-22T05:46:31.465Z,7.10
2023-03-22T05:47:31.300Z,7.30
2023-03-22T05:48:32.546Z,7.60
2023-03-22T05:49:32.670Z,7.30
2023-03-22T05:50:32.002Z,7.00
2023-03-22T05:51:31.339Z,7.70
2023-03-22T05:52:33.993Z,7.30
2023-03-22T05:53:31.365Z,6.90
2023-03-22T05:54:31.620Z,7.30
2023-03-22T05:55:31.314Z,7.10
2023-03-22T05:56:31.696Z,7.80
2023-03-22T05:59:02.975Z,7.30
2023-03-22T06:00:02.945Z,7.80
2023-03-22T06:01:02.783Z,7.30
2023-03-22T06:02:02.851Z,7.90
2023-03-22T06:03:04.110Z,7.50
2023-03-22T06:04:02.862Z,7.80
2023-03-22T06:05:02.676Z,7.70
2023-03-22T06:07:34.630Z,7.90
2023-03-22T06:08:34.493Z,7.70
2023-03-22T06:09:34.633Z,7.90
2023-03-22T06:10:34.574Z,8.50
2023-03-22T06:11:34.528Z,7.90
2023-03-22T06:12:34.515Z,7.60
2023-03-22T06:16:06.089Z,8.30
2023-03-22T06:17:05.971Z,7.90
2023-03-22T06:18:06.044Z,8.20
2023-03-22T06:19:05.913Z,8.20
2023-03-22T06:20:05.919Z,8.20
2023-03-22T06:21:05.885Z,8.60
2023-03-22T06:22:05.752Z,8.40
2023-03-22T06:23:05.774Z,8.10
2023-03-22T06:24:05.820Z,8.30
2023-03-22T06:25:05.698Z,8.20
2023-03-22T06:26:09.050Z,8.00
2023-03-22T06:27:07.427Z,8.00
2023-03-22T06:28:07.550Z,8.30
2023-03-22T06:29:08.047Z,8.00
2023-03-22T06:30:07.493Z,8.00
2023-03-22T06:31:05.600Z,8.20
2023-03-22T06:32:06.248Z,8.20
2023-03-22T06:33:07.993Z,8.10
2023-03-22T06:34:05.649Z,8.30
2023-03-22T06:35:05.445Z,8.30
2023-03-22T06:36:05.483Z,8.30
2023-03-22T06:37:05.253Z,8.40
2023-03-22T06:38:10.005Z,7.90
2023-03-22T06:39:05.131Z,7.90
2023-03-22T06:40:05.400Z,7.70
2023-03-22T06:41:04.591Z,8.10
2023-03-22T06:42:04.126Z,8.20
2023-03-22T06:43:07.007Z,8.30
2023-03-22T06:44:03.961Z,8.50
2023-03-22T06:45:03.893Z,7.70
2023-03-22T06:46:03.891Z,8.10
2023-03-22T06:47:03.816Z,8.50
2023-03-22T06:48:03.837Z,8.10
2023-03-22T06:49:03.746Z,8.10
2023-03-22T06:50:03.691Z,8.20
2023-03-22T06:51:03.689Z,8.20
2023-03-22T06:52:03.608Z,8.10
2023-03-22T06:53:03.611Z,7.50
2023-03-22T06:54:03.557Z,7.70
2023-03-22T06:55:03.507Z,7.60
2023-03-22T06:56:03.442Z,8.10
2023-03-22T06:57:03.429Z,7.50
2023-03-22T06:58:03.364Z,8.20
2023-03-22T06:59:03.341Z,7.70
2023-03-22T07:00:03.276Z,7.70
2023-03-22T07:01:03.286Z,7.30
2023-03-22T07:02:03.195Z,7.20
2023-03-22T07:03:03.182Z,7.30
2023-03-22T07:04:03.119Z,7.30
2023-03-22T07:05:03.093Z,6.90
2023-03-22T07:06:13.572Z,7.10
2023-03-22T07:07:03.005Z,7.00
2023-03-22T07:08:02.966Z,7.00
2023-03-22T07:09:02.921Z,7.30
2023-03-22T07:10:02.883Z,7.00
2023-03-22T07:11:02.842Z,6.80
2023-03-22T07:12:02.795Z,6.60
2023-03-22T07:13:02.773Z,6.80
2023-03-22T07:14:02.743Z,6.70
2023-03-22T07:15:02.682Z,6.70
2023-03-22T07:16:02.670Z,6.40
2023-03-22T07:17:02.602Z,6.30
2023-03-22T07:18:02.555Z,6.30
2023-03-22T07:19:02.526Z,6.00
2023-03-22T07:20:02.508Z,5.80
2023-03-22T07:21:02.454Z,5.50
2023-03-22T07:22:02.400Z,5.40
2023-03-22T07:23:02.368Z,5.50
2023-03-22T07:24:02.322Z,5.00
2023-03-22T07:25:02.286Z,4.80
2023-03-22T07:26:02.273Z,5.30
2023-03-22T07:27:02.210Z,5.30
2023-03-22T07:28:02.168Z,4.90
2023-03-22T07:29:02.132Z,5.10
2023-03-22T07:30:02.089Z,4.30
2023-03-22T07:31:02.053Z,4.60
2023-03-22T07:32:02.114Z,4.90
2023-03-22T07:33:01.986Z,4.50
2023-03-22T07:34:01.949Z,5.00
2023-03-22T07:35:02.163Z,4.30
2023-03-22T07:36:01.894Z,4.40
2023-03-22T07:37:01.831Z,4.40
2023-03-22T07:38:01.789Z,4.40
2023-03-22T07:39:01.757Z,4.40
2023-03-22T07:40:01.706Z,4.60
2023-03-22T07:41:01.677Z,4.30
2023-03-22T07:42:01.634Z,4.20
2023-03-22T07:43:01.609Z,4.20
2023-03-22T07:44:16.692Z,4.20
2023-03-22T07:45:01.534Z,4.00
2023-03-22T07:46:01.488Z,3.70
2023-03-22T07:47:01.465Z,3.60
2023-03-22T07:48:01.872Z,3.60
2023-03-22T07:49:01.519Z,3.30
2023-03-22T07:50:01.518Z,3.60
2023-03-22T07:51:01.308Z,3.40
2023-03-22T07:52:01.282Z,3.30
2023-03-22T07:53:01.232Z,3.20
2023-03-22T07:54:01.194Z,3.50
2023-03-22T07:55:01.174Z,3.40
2023-03-22T07:56:01.121Z,3.40
2023-03-22T07:57:02.095Z,3.40
2023-03-22T07:58:01.062Z,3.20
2023-03-22T07:59:01.098Z,3.30
2023-03-22T08:00:01.009Z,3.10
2023-03-22T08:01:00.938Z,3.00
2023-03-22T08:02:00.922Z,2.90
2023-03-22T08:03:00.926Z,3.10
2023-03-22T08:04:00.829Z,2.80
2023-03-22T08:05:01.063Z,2.90
2023-03-22T08:06:00.782Z,2.90
2023-03-22T08:07:00.722Z,2.90
2023-03-22T08:08:00.685Z,2.60
2023-03-22T08:09:00.640Z,2.60
2023-03-22T08:10:00.602Z,2.60
2023-03-22T08:11:00.571Z,2.40
2023-03-22T08:12:00.541Z,2.70
2023-03-22T08:13:00.486Z,2.40
2023-03-22T08:14:00.456Z,2.40
2023-03-22T08:15:00.416Z,2.70
2023-03-22T08:16:00.392Z,3.00
2023-03-22T08:17:00.345Z,2.70
2023-03-22T08:18:00.294Z,2.50
2023-03-22T08:19:00.258Z,2.70
2023-03-22T08:20:00.227Z,2.80
2023-03-22T08:21:00.179Z,3.10
2023-03-22T08:22:00.146Z,2.70
2023-03-22T08:23:00.123Z,2.50
2023-03-22T08:24:00.077Z,2.70
2023-03-22T08:25:00.030Z,2.60
2023-03-22T08:25:59.996Z,2.50
2023-03-22T08:26:59.955Z,2.60
2023-03-22T08:27:59.914Z,2.80
2023-03-22T08:28:59.882Z,2.80
2023-03-22T08:29:59.847Z,2.90
2023-03-22T08:30:59.797Z,2.90
2023-03-22T08:31:59.795Z,2.80
2023-03-22T08:32:59.718Z,2.90
2023-03-22T08:34:01.099Z,2.70
2023-03-22T08:34:59.671Z,2.60
2023-03-22T08:35:59.659Z,2.90
2023-03-22T08:36:59.564Z,2.40
2023-03-22T08:37:59.533Z,2.30
2023-03-22T08:38:59.545Z,2.30
2023-03-22T08:39:59.575Z,2.20
2023-03-22T08:40:59.552Z,1.90
2023-03-22T08:41:59.430Z,2.10
2023-03-22T08:42:59.335Z,1.80
2023-03-22T08:43:59.324Z,1.50
2023-03-22T08:44:59.261Z,1.90
2023-03-22T08:45:59.287Z,1.60
2023-03-22T08:46:59.206Z,1.70
2023-03-22T08:47:59.183Z,1.90
2023-03-22T08:48:59.110Z,2.00
2023-03-22T08:49:59.065Z,2.90
2023-03-22T08:50:59.027Z,1.70
2023-03-22T08:51:59.000Z,2.30
2023-03-22T08:52:58.948Z,1.90
2023-03-22T08:53:58.950Z,2.10
2023-03-22T08:54:58.901Z,2.00
2023-03-22T08:55:58.837Z,2.00
2023-03-22T08:56:58.800Z,1.90
2023-03-22T08:57:58.765Z,1.80
2023-03-22T08:58:58.732Z,2.20
2023-03-22T08:59:58.684Z,2.00
2023-03-22T09:00:58.725Z,1.80
2023-03-22T09:01:58.764Z,1.70
2023-03-22T09:02:58.577Z,1.70
2023-03-22T09:03:58.568Z,2.00
2023-03-22T09:04:58.515Z,2.00
2023-03-22T09:05:58.469Z,1.70
2023-03-22T09:06:58.418Z,1.60
2023-03-22T09:08:05.869Z,1.70
2023-03-22T09:08:58.341Z,1.90
2023-03-22T09:09:58.304Z,2.00
2023-03-22T09:10:58.274Z,1.80
2023-03-22T09:11:58.253Z,1.90
2023-03-22T09:12:58.192Z,1.80
2023-03-22T09:13:58.175Z,1.80
2023-03-22T09:14:58.633Z,1.70
2023-03-22T09:15:58.133Z,1.50
2023-03-22T09:16:58.061Z,1.80
2023-03-22T09:17:58.015Z,1.90
2023-03-22T09:18:58.091Z,1.80
2023-03-22T09:20:11.609Z,1.70
2023-03-22T09:20:57.900Z,1.60
2023-03-22T09:21:57.867Z,1.60
2023-03-22T09:22:57.831Z,1.70
2023-03-22T09:23:57.831Z,1.60
2023-03-22T09:24:57.748Z,1.50
2023-03-22T09:25:57.816Z,1.60
2023-03-22T09:26:57.674Z,1.40
2023-03-22T09:27:57.649Z,1.60
2023-03-22T09:28:57.634Z,1.30
2023-03-22T09:29:57.650Z,1.40
2023-03-22T09:30:57.569Z,1.40
2023-03-22T09:31:57.520Z,1.50
2023-03-22T09:32:57.502Z,1.50
2023-03-22T09:33:57.445Z,1.40
2023-03-22T09:34:57.392Z,1.60
2023-03-22T09:35:57.406Z,1.40
2023-03-22T09:36:58.600Z,1.80
2023-03-22T09:37:57.286Z,1.40
2023-03-22T09:38:57.262Z,1.70
2023-03-22T09:39:57.230Z,1.50
2023-03-22T09:40:57.181Z,1.40
2023-03-22T09:41:57.145Z,1.90
2023-03-22T09:42:57.114Z,1.60
2023-03-22T09:43:57.089Z,1.90
2023-03-22T09:44:57.070Z,1.80
2023-03-22T09:45:57.078Z,1.80
2023-03-22T09:46:56.973Z,1.50
2023-03-22T09:47:56.976Z,1.70
2023-03-22T09:48:56.904Z,1.80
2023-03-22T09:49:56.868Z,1.70
2023-03-22T09:50:56.844Z,1.60
2023-03-22T09:51:56.838Z,1.80
2023-03-22T09:52:56.762Z,1.80
2023-03-22T09:53:56.741Z,1.60
2023-03-22T09:54:56.691Z,1.80
2023-03-22T09:55:56.669Z,1.90
2023-03-22T09:56:56.616Z,1.80
2023-03-22T09:57:56.585Z,1.70
2023-03-22T09:58:56.543Z,1.60
2023-03-22T09:59:56.510Z,1.60
2023-03-22T10:00:56.588Z,1.60
2023-03-22T10:01:56.648Z,1.80
2023-03-22T10:02:56.459Z,1.60
2023-03-22T10:03:56.377Z,1.70
2023-03-22T10:04:56.328Z,1.90
2023-03-22T10:05:56.295Z,1.70
2023-03-22T10:06:56.269Z,1.80
2023-03-22T10:07:56.351Z,1.50
2023-03-22T10:08:56.195Z,1.60
2023-03-22T10:09:56.213Z,1.80
2023-03-22T10:10:56.112Z,1.70
2023-03-22T10:11:56.118Z,1.90
2023-03-22T10:12:56.066Z,1.70
2023-03-22T10:13:56.085Z,1.80
2023-03-22T10:14:55.977Z,1.90
2023-03-22T10:15:56.114Z,1.60
2023-03-22T10:16:56.618Z,1.60
2023-03-22T10:17:56.112Z,1.80
2023-03-22T10:18:55.945Z,1.80
2023-03-22T10:19:57.086Z,1.50
2023-03-22T10:20:55.844Z,1.70
2023-03-22T10:21:56.099Z,1.50
2023-03-22T10:22:55.854Z,1.50
2023-03-22T10:23:55.761Z,1.70
2023-03-22T10:24:55.909Z,1.80
2023-03-22T10:25:55.878Z,1.80
2023-03-22T10:26:55.679Z,1.50
2023-03-22T10:27:57.276Z,1.60
2023-03-22T10:28:55.605Z,1.50
2023-03-22T10:29:55.638Z,1.50
2023-03-22T10:30:55.906Z,1.70
2023-03-22T10:31:55.745Z,1.50
2023-03-22T10:32:58.156Z,1.70
2023-03-22T10:33:55.476Z,1.70
2023-03-22T10:34:55.406Z,1.90
2023-03-22T10:35:55.385Z,1.50
2023-03-22T10:36:55.372Z,1.60
2023-03-22T10:37:55.316Z,1.60
2023-03-22T10:38:55.498Z,1.70
2023-03-22T10:39:55.488Z,1.80
2023-03-22T10:40:55.554Z,1.60
2023-03-22T10:41:57.844Z,1.90
2023-03-22T10:42:55.117Z,1.60
2023-03-22T10:43:55.015Z,1.60
2023-03-22T10:44:54.996Z,1.70
2023-03-22T10:45:55.053Z,1.60
2023-03-22T10:46:55.129Z,2.10
2023-03-22T10:47:55.057Z,1.70
2023-03-22T10:48:54.882Z,1.50
2023-03-22T10:49:55.045Z,1.70
2023-03-22T10:50:54.835Z,1.80
2023-03-22T10:51:54.920Z,1.90
2023-03-22T10:52:54.843Z,1.80
2023-03-22T10:53:54.711Z,1.50
2023-03-22T10:54:54.753Z,1.70
2023-03-22T10:55:54.597Z,2.00
2023-03-22T10:56:54.577Z,2.10
2023-03-22T10:57:54.549Z,1.80
2023-03-22T10:58:54.485Z,1.80
2023-03-22T10:59:54.629Z,1.70
2023-03-22T11:00:54.531Z,1.60
2023-03-22T11:01:55.569Z,1.90
2023-03-22T11:02:54.381Z,1.80
2023-03-22T11:03:54.500Z,2.00
2023-03-22T11:04:54.246Z,2.00
2023-03-22T11:05:54.292Z,1.80
2023-03-22T11:06:56.282Z,1.80
2023-03-22T11:07:54.313Z,1.70
2023-03-22T11:08:54.254Z,1.60
2023-03-22T11:09:54.247Z,1.70
2023-03-22T11:10:54.396Z,1.60
2023-03-22T11:11:54.757Z,1.70
2023-03-22T11:12:53.979Z,1.50
2023-03-22T11:13:53.922Z,1.70
2023-03-22T11:14:53.981Z,1.60
2023-03-22T11:15:53.878Z,1.60
2023-03-22T11:16:53.963Z,1.60
2023-03-22T11:17:53.942Z,1.80
2023-03-22T11:18:53.849Z,1.80
2023-03-22T11:19:53.911Z,1.80
2023-03-22T11:20:53.767Z,1.80
2023-03-22T11:21:53.829Z,1.60
2023-03-22T11:22:53.744Z,1.60
2023-03-22T11:23:53.553Z,1.60
2023-03-22T11:24:53.547Z,1.60
2023-03-22T11:25:53.486Z,1.80
2023-03-22T11:26:53.561Z,1.70
2023-03-22T11:27:53.502Z,1.60
2023-03-22T11:28:53.584Z,2.00
2023-03-22T11:29:53.362Z,1.60
2023-03-22T11:30:53.305Z,1.70
2023-03-22T11:31:55.622Z,1.70
2023-03-22T11:32:53.273Z,1.80
2023-03-22T11:33:53.622Z,1.60
2023-03-22T11:34:53.184Z,1.80
2023-03-22T11:35:53.193Z,1.60
2023-03-22T11:36:53.063Z,1.50
2023-03-22T11:37:53.001Z,1.70
2023-03-22T11:38:52.942Z,1.70
2023-03-22T11:39:52.975Z,1.90
2023-03-22T11:40:53.096Z,1.60
2023-03-22T11:41:52.902Z,1.60
2023-03-22T11:42:52.948Z,1.40
2023-03-22T11:43:54.045Z,1.70
2023-03-22T11:44:52.822Z,1.90
2023-03-22T11:45:52.858Z,1.90
2023-03-22T11:46:52.704Z,1.80
2023-03-22T11:47:52.870Z,1.90
2023-03-22T11:48:52.719Z,1.90
2023-03-22T11:49:52.666Z,2.00
2023-03-22T11:50:52.609Z,1.90
2023-03-22T11:51:52.662Z,1.70
2023-03-22T11:52:52.543Z,1.90
2023-03-22T11:53:52.480Z,1.70
2023-03-22T11:54:52.437Z,1.80
2023-03-22T11:55:52.427Z,1.80
2023-03-22T11:56:52.408Z,1.80
2023-03-22T11:57:52.281Z,1.80
2023-03-22T11:58:52.251Z,1.90
2023-03-22T11:59:52.273Z,1.80
2023-03-22T12:00:52.176Z,1.70
2023-03-22T12:01:52.246Z,1.40
2023-03-22T12:02:52.119Z,1.50
2023-03-22T12:03:52.196Z,1.70
2023-03-22T12:04:52.059Z,1.50
2023-03-22T12:05:52.098Z,1.60
2023-03-22T12:06:52.045Z,1.90
2023-03-22T12:07:52.012Z,2.10
2023-03-22T12:08:51.997Z,1.80
2023-03-22T12:09:51.907Z,1.70
2023-03-22T12:10:51.854Z,1.80
2023-03-22T12:11:51.866Z,1.70
2023-03-22T12:12:51.994Z,1.60
2023-03-22T12:13:51.721Z,1.60
2023-03-22T12:14:51.756Z,1.70
2023-03-22T12:15:51.693Z,1.50
2023-03-22T12:16:51.657Z,1.70
2023-03-22T12:17:51.597Z,1.70
2023-03-22T12:18:51.571Z,1.70
2023-03-22T12:19:51.514Z,1.50
2023-03-22T12:20:51.461Z,1.90
2023-03-22T12:21:51.396Z,1.70
2023-03-22T12:22:51.471Z,1.90
2023-03-22T12:23:51.375Z,1.90
2023-03-22T12:24:51.362Z,1.50
2023-03-22T12:25:51.354Z,1.50
2023-03-22T12:26:51.248Z,1.50
2023-03-22T12:27:51.260Z,1.70
2023-03-22T12:28:51.185Z,1.70
2023-03-22T12:29:51.123Z,1.60
2023-03-22T12:30:51.133Z,1.60
2023-03-22T12:31:52.773Z,1.40
2023-03-22T12:32:51.117Z,1.40
2023-03-22T12:33:51.045Z,1.50
2023-03-22T12:34:52.583Z,1.50
2023-03-22T12:35:50.972Z,1.60
2023-03-22T12:36:50.925Z,1.70
2023-03-22T12:37:50.861Z,1.40
2023-03-22T12:38:50.777Z,1.50
2023-03-22T12:39:50.754Z,1.70
2023-03-22T12:40:56.697Z,1.60
2023-03-22T12:41:50.571Z,1.30
2023-03-22T12:42:52.747Z,1.40
2023-03-22T12:43:50.500Z,1.80
2023-03-22T12:45:04.261Z,1.40
2023-03-22T12:45:50.416Z,1.50
2023-03-22T12:46:50.478Z,1.60
2023-03-22T12:47:50.475Z,1.50
2023-03-22T12:48:50.386Z,1.30
2023-03-22T12:49:50.268Z,1.50
2023-03-22T12:50:50.258Z,1.50
2023-03-22T12:51:50.200Z,1.50
2023-03-22T12:52:50.159Z,1.40
2023-03-22T12:53:50.743Z,1.80
2023-03-22T12:54:50.078Z,1.60
2023-03-22T12:55:50.041Z,1.60
2023-03-22T12:56:49.995Z,1.50
2023-03-22T12:57:49.992Z,1.80
2023-03-22T12:58:49.940Z,1.60
2023-03-22T12:59:49.881Z,1.50
2023-03-22T13:00:49.872Z,1.60
2023-03-22T13:01:49.810Z,1.50
2023-03-22T13:02:49.854Z,1.60
2023-03-22T13:03:49.828Z,1.50
2023-03-22T13:04:49.754Z,1.40
2023-03-22T13:05:49.670Z,1.30
2023-03-22T13:06:58.787Z,1.40
2023-03-22T13:07:49.603Z,1.70
2023-03-22T13:08:49.542Z,1.50
2023-03-22T13:09:49.527Z,1.70
2023-03-22T13:10:49.465Z,1.60
2023-03-22T13:11:49.819Z,1.70
2023-03-22T13:12:49.385Z,1.80
2023-03-22T13:13:49.337Z,1.50
2023-03-22T13:14:49.333Z,1.80
2023-03-22T13:15:49.281Z,1.60
2023-03-22T13:16:49.270Z,1.70
2023-03-22T13:17:49.274Z,1.60
2023-03-22T13:18:49.164Z,1.70
2023-03-22T13:19:49.113Z,1.60
2023-03-22T13:20:49.073Z,1.50
2023-03-22T13:21:49.055Z,1.60
2023-03-22T13:22:49.009Z,1.80
2023-03-22T13:23:48.954Z,1.50
2023-03-22T13:24:48.933Z,1.70
2023-03-22T13:25:48.873Z,1.70
2023-03-22T13:26:48.859Z,1.80
2023-03-22T13:27:48.798Z,1.70
2023-03-22T13:28:48.757Z,1.70
2023-03-22T13:29:48.736Z,1.60
2023-03-22T13:30:48.685Z,2.00
2023-03-22T13:31:48.661Z,1.80
2023-03-22T13:32:48.682Z,1.60
2023-03-22T13:33:48.581Z,1.70
2023-03-22T13:34:48.578Z,1.80
2023-03-22T13:35:48.518Z,1.70
2023-03-22T13:36:48.477Z,1.70
2023-03-22T13:37:48.433Z,1.60
2023-03-22T13:38:48.388Z,1.60
2023-03-22T13:39:48.357Z,1.50
2023-03-22T13:40:48.313Z,1.50
2023-03-22T13:41:48.262Z,1.80
2023-03-22T13:42:48.232Z,1.70
2023-03-22T13:43:48.213Z,1.40
2023-03-22T13:44:48.146Z,1.70
2023-03-22T13:45:48.153Z,1.30
2023-03-22T13:46:48.096Z,1.80
2023-03-22T13:47:48.125Z,1.50
2023-03-22T13:48:48.640Z,1.60
2023-03-22T13:49:47.999Z,1.60
2023-03-22T13:50:47.912Z,1.60
2023-03-22T13:51:47.882Z,1.50
2023-03-22T13:52:47.855Z,1.50
2023-03-22T13:53:47.796Z,1.60
2023-03-22T13:54:47.807Z,1.50
2023-03-22T13:55:47.729Z,1.70
2023-03-22T13:56:47.814Z,1.60
2023-03-22T13:57:47.647Z,1.60
2023-03-22T13:58:47.605Z,1.50
2023-03-22T13:59:49.133Z,1.80
2023-03-22T14:00:47.535Z,1.60
2023-03-22T14:01:47.714Z,1.60
2023-03-22T14:02:47.550Z,1.60
2023-03-22T14:03:47.626Z,1.60
2023-03-22T14:04:47.383Z,1.70
2023-03-22T14:05:47.369Z,1.60
2023-03-22T14:06:47.308Z,1.70
2023-03-22T14:07:47.311Z,1.50
2023-03-22T14:08:47.233Z,1.70
2023-03-22T14:09:47.190Z,1.70
2023-03-22T14:10:47.162Z,1.60
2023-03-22T14:11:47.114Z,1.70
2023-03-22T14:12:47.076Z,1.70
2023-03-22T14:13:47.043Z,1.70
2023-03-22T14:14:47.087Z,1.60
2023-03-22T14:15:47.102Z,1.50
2023-03-22T14:16:46.947Z,1.70
2023-03-22T14:17:48.726Z,1.60
2023-03-22T14:18:46.865Z,1.80
2023-03-22T14:19:46.813Z,1.80
2023-03-22T14:20:46.778Z,1.80
2023-03-22T14:21:46.742Z,1.70
2023-03-22T14:45:55.010Z,1.60
2023-03-22T14:46:54.990Z,1.70
2023-03-22T14:47:54.937Z,1.90
2023-03-22T14:48:54.914Z,1.50
2023-03-22T14:49:54.862Z,1.70
2023-03-22T14:50:54.822Z,1.80
2023-03-22T14:51:55.637Z,1.80
2023-03-22T14:52:54.761Z,2.20
2023-03-22T14:53:54.722Z,1.70
2023-03-22T14:54:54.711Z,1.80
2023-03-22T14:55:54.644Z,1.60
2023-03-22T14:56:54.660Z,1.90
2023-03-22T14:57:54.566Z,1.70
2023-03-22T14:58:54.513Z,1.80
2023-03-22T14:59:54.471Z,2.00